Time;durP1;ratioP1;P1;durP2;ratioP2;P2;SDS_P1;SDS_P2;PMS_P1;PMS_P2;Temp;Humidity;BMP_temperature;BMP_pressure;BME280_temperature;BME280_humidity;BME280_pressure;Samples;Min_cycle;Max_cycle;Signal;HPM_P1;HPM_P2
2023/10/14 00:02:01;;;;;;;2.60;0.60;;;;;;;;;;5011299;28;20887;-61
2023/10/14 00:04:26;;;;;;;4.85;0.70;;;;;;;;;;5017021;28;20447;-60
2023/10/14 00:06:52;;;;;;;3.77;0.87;;;;;;;;;;5012481;28;20426;-60
2023/10/14 00:09:17;;;;;;;3.17;0.77;;;;;;;;;;5020118;28;20909;-61
2023/10/14 00:11:46;;;;;;;4.68;1.15;;;;;;;;;;5017282;28;20475;-60
2023/10/14 00:14:18;;;;;;;4.07;1.15;;;;;;;;;;5021079;28;20405;-61
2023/10/14 00:16:50;;;;;;;2.53;0.60;;;;;;;;;;5022171;28;20419;-60
2023/10/14 00:19:17;;;;;;;2.92;0.85;;;;;;;;;;5013353;28;20400;-60
2023/10/14 00:21:43;;;;;;;4.57;0.90;;;;;;;;;;5014435;28;20409;-60
2023/10/14 00:24:08;;;;;;;2.20;0.50;;;;;;;;;;5021329;28;20411;-60
2023/10/14 00:26:34;;;;;;;3.33;0.70;;;;;;;;;;5011479;28;20476;-60
2023/10/14 00:31:40;;;;;;;3.78;0.85;;;;;;;;;;5013552;28;20478;-60
2023/10/14 00:34:06;;;;;;;2.38;0.70;;;;;;;;;;5013206;28;20933;-60
2023/10/14 00:36:31;;;;;;;4.77;0.77;;;;;;;;;;5021872;28;20401;-60
2023/10/14 00:38:57;;;;;;;3.27;0.67;;;;;;;;;;5013576;28;20401;-60
2023/10/14 00:41:25;;;;;;;3.85;0.63;;;;;;;;;;5013933;28;20408;-60
2023/10/14 00:43:51;;;;;;;3.80;0.70;;;;;;;;;;5021679;28;20435;-60
2023/10/14 00:46:16;;;;;;;2.90;0.57;;;;;;;;;;5013025;28;20424;-60
2023/10/14 00:48:46;;;;;;;3.83;0.77;;;;;;;;;;5014327;28;20414;-60
2023/10/14 00:51:13;;;;;;;4.53;0.90;;;;;;;;;;5018643;28;20973;-60
2023/10/14 00:53:39;;;;;;;1.70;0.50;;;;;;;;;;5019618;28;20531;-60
2023/10/14 00:56:05;;;;;;;3.43;0.80;;;;;;;;;;5011586;28;20823;-60
2023/10/14 00:58:31;;;;;;;3.95;0.90;;;;;;;;;;5014685;28;20407;-59
2023/10/14 01:00:57;;;;;;;3.25;0.80;;;;;;;;;;5020595;28;20414;-59
2023/10/14 01:03:23;;;;;;;3.10;0.80;;;;;;;;;;5007621;28;20470;-60
2023/10/14 01:05:48;;;;;;;3.57;0.77;;;;;;;;;;5003470;28;20424;-60
2023/10/14 01:08:13;;;;;;;3.03;0.70;;;;;;;;;;5000563;28;20505;-60
2023/10/14 01:10:39;;;;;;;3.28;0.60;;;;;;;;;;4999700;28;20403;-59
2023/10/14 01:13:13;;;;;;;4.25;0.90;;;;;;;;;;4994385;28;20419;-60
2023/10/14 01:15:42;;;;;;;3.38;0.70;;;;;;;;;;4999218;28;20405;-59
2023/10/14 01:18:08;;;;;;;4.72;1.08;;;;;;;;;;4999637;28;20902;-60
2023/10/14 01:20:39;;;;;;;4.87;0.80;;;;;;;;;;5003954;28;20487;-59
2023/10/14 01:23:07;;;;;;;3.63;0.80;;;;;;;;;;5004533;28;20411;-59
2023/10/14 01:25:33;;;;;;;4.78;0.70;;;;;;;;;;5012794;28;20482;-59
2023/10/14 01:27:59;;;;;;;5.50;0.90;;;;;;;;;;5004443;28;20811;-59
2023/10/14 01:30:26;;;;;;;4.97;1.00;;;;;;;;;;5004265;28;20397;-59
2023/10/14 01:32:51;;;;;;;3.65;0.75;;;;;;;;;;5005892;28;20794;-59
2023/10/14 01:37:51;;;;;;;3.73;0.93;;;;;;;;;;4996105;28;20399;-59
2023/10/14 01:42:48;;;;;;;6.05;1.05;;;;;;;;;;5012057;28;20961;-59
2023/10/14 01:45:20;;;;;;;3.73;0.90;;;;;;;;;;5003827;28;20416;-59
2023/10/14 01:47:49;;;;;;;6.18;1.20;;;;;;;;;;5004943;28;20422;-59
2023/10/14 01:50:14;;;;;;;5.45;1.13;;;;;;;;;;5022656;28;20755;-59
2023/10/14 01:52:41;;;;;;;5.37;1.20;;;;;;;;;;5004651;28;20408;-59
2023/10/14 01:55:08;;;;;;;6.97;1.10;;;;;;;;;;5003319;28;20412;-59
2023/10/14 01:57:36;;;;;;;5.68;1.05;;;;;;;;;;4997285;28;20409;-59
2023/10/14 02:00:24;;;;;;;7.00;1.27;;;;;;;;;;5003409;28;20409;-60
2023/10/14 02:02:48;;;;;;;8.55;1.20;;;;;;;;;;4996966;28;20423;-59
2023/10/14 02:05:14;;;;;;;5.97;1.43;;;;;;;;;;5003710;28;20932;-59
2023/10/14 02:07:40;;;;;;;7.22;1.48;;;;;;;;;;5006100;28;20412;-59
2023/10/14 02:10:06;;;;;;;7.05;1.25;;;;;;;;;;5003565;28;20404;-59
2023/10/14 02:12:34;;;;;;;6.28;1.38;;;;;;;;;;5003603;28;20397;-59
2023/10/14 02:15:00;;;;;;;7.30;1.38;;;;;;;;;;5004165;28;20401;-59
2023/10/14 02:17:25;;;;;;;8.70;1.33;;;;;;;;;;5004694;28;20426;-59
2023/10/14 02:19:52;;;;;;;9.00;1.60;;;;;;;;;;4998010;28;20415;-59
2023/10/14 02:22:22;;;;;;;6.93;1.40;;;;;;;;;;4996604;28;20412;-59
2023/10/14 02:24:48;;;;;;;6.45;1.10;;;;;;;;;;4997976;28;20903;-59
2023/10/14 02:27:14;;;;;;;5.90;1.20;;;;;;;;;;5001573;28;20473;-59
2023/10/14 02:29:46;;;;;;;8.50;1.50;;;;;;;;;;5003992;28;20940;-59
2023/10/14 02:32:12;;;;;;;8.40;1.50;;;;;;;;;;5010344;28;20690;-59
2023/10/14 02:34:38;;;;;;;6.93;1.60;;;;;;;;;;5022726;28;20811;-59
2023/10/14 02:37:06;;;;;;;7.50;1.30;;;;;;;;;;5031883;28;20457;-59
2023/10/14 02:39:31;;;;;;;9.13;1.50;;;;;;;;;;5031911;28;20790;-59
2023/10/14 02:42:07;;;;;;;8.50;1.60;;;;;;;;;;5031191;28;20890;-59
2023/10/14 02:44:33;;;;;;;8.80;1.52;;;;;;;;;;5031610;28;20391;-59
2023/10/14 02:47:03;;;;;;;7.53;1.50;;;;;;;;;;5031056;28;20802;-59
2023/10/14 02:49:35;;;;;;;9.60;2.10;;;;;;;;;;5031454;28;20925;-59
2023/10/14 02:52:03;;;;;;;7.95;1.70;;;;;;;;;;5031331;28;20465;-60
2023/10/14 02:54:32;;;;;;;9.63;1.60;;;;;;;;;;5030774;28;20407;-59
2023/10/14 02:56:59;;;;;;;7.28;1.52;;;;;;;;;;5031550;28;20400;-59
2023/10/14 02:59:43;;;;;;;9.02;1.63;;;;;;;;;;5031186;28;20814;-59
2023/10/14 03:04:47;;;;;;;8.97;1.60;;;;;;;;;;5011656;28;20405;-59
2023/10/14 03:07:21;;;;;;;8.88;1.80;;;;;;;;;;5011108;28;20420;-59
2023/10/14 03:09:47;;;;;;;8.07;1.70;;;;;;;;;;5011180;28;20436;-59
2023/10/14 03:12:18;;;;;;;6.90;1.40;;;;;;;;;;5022777;28;20429;-59
2023/10/14 03:14:44;;;;;;;12.15;1.80;;;;;;;;;;5022121;28;20478;-59
2023/10/14 03:17:10;;;;;;;9.07;1.65;;;;;;;;;;5011535;28;20486;-59
2023/10/14 03:19:35;;;;;;;7.43;1.50;;;;;;;;;;5031308;28;20398;-59
2023/10/14 03:22:00;;;;;;;8.52;1.60;;;;;;;;;;5030494;28;20406;-59
2023/10/14 03:24:29;;;;;;;8.63;1.60;;;;;;;;;;5031011;28;20921;-59
2023/10/14 03:27:01;;;;;;;9.27;2.00;;;;;;;;;;5029487;28;20446;-59
2023/10/14 03:29:28;;;;;;;8.97;1.60;;;;;;;;;;5025846;28;20472;-59
2023/10/14 03:31:55;;;;;;;11.25;1.75;;;;;;;;;;5016558;28;20403;-59
2023/10/14 03:34:21;;;;;;;11.07;2.00;;;;;;;;;;5021852;28;20387;-59
2023/10/14 03:36:50;;;;;;;10.73;1.93;;;;;;;;;;5027693;28;20399;-59
2023/10/14 03:39:21;;;;;;;9.38;1.65;;;;;;;;;;5030377;28;20403;-59
2023/10/14 03:41:52;;;;;;;7.68;1.38;;;;;;;;;;5015963;28;20880;-59
2023/10/14 03:44:21;;;;;;;7.97;1.60;;;;;;;;;;5013447;28;20409;-59
2023/10/14 03:46:47;;;;;;;9.53;1.70;;;;;;;;;;5011590;28;20903;-59
2023/10/14 03:49:20;;;;;;;11.68;1.88;;;;;;;;;;5014570;28;20399;-59
2023/10/14 03:51:46;;;;;;;10.20;1.80;;;;;;;;;;5013881;28;20409;-59
2023/10/14 03:54:13;;;;;;;9.98;1.70;;;;;;;;;;5021494;28;20419;-59
2023/10/14 03:56:44;;;;;;;9.77;1.90;;;;;;;;;;5015045;28;20748;-59
2023/10/14 03:59:12;;;;;;;10.35;1.60;;;;;;;;;;5013552;28;20411;-59
2023/10/14 04:04:14;;;;;;;9.23;1.50;;;;;;;;;;5011883;28;20935;-59
2023/10/14 04:06:41;;;;;;;8.50;1.52;;;;;;;;;;5015616;28;20416;-59
2023/10/14 04:09:10;;;;;;;10.30;1.93;;;;;;;;;;5020983;28;20422;-59
2023/10/14 04:11:38;;;;;;;7.57;1.60;;;;;;;;;;5012930;28;20492;-59
2023/10/14 04:14:04;;;;;;;12.00;2.00;;;;;;;;;;5018406;28;20403;-60
2023/10/14 04:16:48;;;;;;;8.27;1.90;;;;;;;;;;5018227;28;20408;-59
2023/10/14 04:19:27;;;;;;;10.63;1.93;;;;;;;;;;5013212;28;20396;-59
2023/10/14 04:21:54;;;;;;;9.80;1.70;;;;;;;;;;5022057;28;20777;-59
2023/10/14 04:26:51;;;;;;;8.95;1.75;;;;;;;;;;5014063;28;20452;-59
2023/10/14 04:29:34;;;;;;;10.40;1.80;;;;;;;;;;5019032;28;20445;-59
2023/10/14 04:32:07;;;;;;;11.18;2.17;;;;;;;;;;5002235;28;20460;-59
2023/10/14 04:34:34;;;;;;;11.27;1.70;;;;;;;;;;5001765;28;20872;-59
2023/10/14 04:37:07;;;;;;;10.30;1.65;;;;;;;;;;5007401;28;20486;-59
2023/10/14 04:39:36;;;;;;;10.15;1.77;;;;;;;;;;4998679;28;20416;-58
2023/10/14 04:44:54;;;;;;;9.63;1.75;;;;;;;;;;4993562;28;20486;-59
2023/10/14 04:47:19;;;;;;;9.77;1.58;;;;;;;;;;5001384;28;20422;-59
2023/10/14 04:49:51;;;;;;;8.73;1.50;;;;;;;;;;5004613;28;20878;-59
2023/10/14 04:52:18;;;;;;;9.30;1.63;;;;;;;;;;5005388;28;20420;-59
2023/10/14 04:54:54;;;;;;;8.63;1.67;;;;;;;;;;5005408;28;20413;-59
2023/10/14 04:57:21;;;;;;;9.73;1.60;;;;;;;;;;5004877;28;20462;-59
2023/10/14 04:59:51;;;;;;;11.00;1.98;;;;;;;;;;5005569;28;20408;-59
2023/10/14 05:02:20;;;;;;;9.30;1.90;;;;;;;;;;5003395;28;20487;-59
2023/10/14 05:04:46;;;;;;;10.48;1.67;;;;;;;;;;5001801;28;20989;-59
2023/10/14 05:07:11;;;;;;;10.83;1.80;;;;;;;;;;4996950;28;20407;-59
2023/10/14 05:09:39;;;;;;;12.33;1.60;;;;;;;;;;4999470;28;20404;-59
2023/10/14 05:12:08;;;;;;;10.05;1.98;;;;;;;;;;5006748;28;20485;-59
2023/10/14 05:14:36;;;;;;;8.25;1.73;;;;;;;;;;5003804;28;20411;-59
2023/10/14 05:17:14;;;;;;;13.27;2.15;;;;;;;;;;5004508;28;20724;-59
2023/10/14 05:19:48;;;;;;;12.65;2.50;;;;;;;;;;5005315;28;21001;-59
2023/10/14 05:22:18;;;;;;;8.77;1.67;;;;;;;;;;5006857;28;20449;-59
2023/10/14 05:24:52;;;;;;;10.13;1.88;;;;;;;;;;5003970;28;20526;-59
2023/10/14 05:27:18;;;;;;;9.70;1.70;;;;;;;;;;4996582;28;20413;-59
2023/10/14 05:29:50;;;;;;;9.67;1.90;;;;;;;;;;4996868;28;20423;-59
2023/10/14 05:32:15;;;;;;;8.55;1.75;;;;;;;;;;5004062;28;21045;-59
2023/10/14 05:34:43;;;;;;;11.83;1.93;;;;;;;;;;5004898;28;20413;-59
2023/10/14 05:37:11;;;;;;;9.07;1.63;;;;;;;;;;5004144;28;20405;-59
2023/10/14 05:39:37;;;;;;;9.73;1.50;;;;;;;;;;5006737;28;20401;-59
2023/10/14 05:42:13;;;;;;;12.35;2.17;;;;;;;;;;5004119;28;20437;-59
2023/10/14 05:44:38;;;;;;;11.88;1.90;;;;;;;;;;5003843;28;20399;-59
2023/10/14 05:47:05;;;;;;;9.90;1.83;;;;;;;;;;5004413;28;20420;-59
2023/10/14 05:49:31;;;;;;;12.47;1.70;;;;;;;;;;5002643;28;20764;-59
2023/10/14 05:51:57;;;;;;;11.00;2.08;;;;;;;;;;4996325;28;20413;-59
2023/10/14 05:54:23;;;;;;;10.98;1.90;;;;;;;;;;4997236;28;20431;-59
2023/10/14 05:56:51;;;;;;;10.43;1.70;;;;;;;;;;5003381;28;20407;-59
2023/10/14 05:59:16;;;;;;;9.52;1.90;;;;;;;;;;5003731;28;20480;-59
2023/10/14 06:01:45;;;;;;;11.57;2.03;;;;;;;;;;5004106;28;20421;-59
2023/10/14 06:04:12;;;;;;;10.90;1.67;;;;;;;;;;5003751;28;20409;-59
2023/10/14 06:06:38;;;;;;;9.10;1.95;;;;;;;;;;5004080;28;20422;-59
2023/10/14 06:09:07;;;;;;;11.10;1.80;;;;;;;;;;5003460;28;20413;-59
2023/10/14 06:11:32;;;;;;;8.75;1.83;;;;;;;;;;4998315;28;20405;-59
2023/10/14 06:13:57;;;;;;;8.30;1.73;;;;;;;;;;4996247;28;20427;-59
2023/10/14 06:16:25;;;;;;;10.63;2.17;;;;;;;;;;4995576;28;20490;-59
2023/10/14 06:18:50;;;;;;;10.73;1.80;;;;;;;;;;5002537;28;20928;-59
2023/10/14 06:21:16;;;;;;;10.23;1.77;;;;;;;;;;5015223;28;20407;-59
2023/10/14 06:23:47;;;;;;;8.47;1.60;;;;;;;;;;5023771;28;20397;-59
2023/10/14 06:26:13;;;;;;;8.90;1.70;;;;;;;;;;5014871;28;20435;-59
2023/10/14 06:28:38;;;;;;;10.77;1.60;;;;;;;;;;5016549;28;20409;-58
2023/10/14 06:31:04;;;;;;;11.00;2.40;;;;;;;;;;5017589;28;20401;-59
2023/10/14 06:33:29;;;;;;;9.60;2.00;;;;;;;;;;5014616;28;20393;-59
2023/10/14 06:35:54;;;;;;;10.13;1.63;;;;;;;;;;5017843;28;20764;-59
2023/10/14 06:38:22;;;;;;;12.03;2.20;;;;;;;;;;5016869;28;20399;-59
2023/10/14 06:40:53;;;;;;;10.95;1.67;;;;;;;;;;5021608;28;20444;-60
2023/10/14 06:43:19;;;;;;;9.60;1.80;;;;;;;;;;5021290;28;20400;-60
2023/10/14 06:45:46;;;;;;;13.43;2.28;;;;;;;;;;5016274;28;20421;-60
2023/10/14 06:48:11;;;;;;;11.27;1.90;;;;;;;;;;5019663;28;20405;-60
2023/10/14 06:50:38;;;;;;;8.73;1.80;;;;;;;;;;5020161;28;20985;-59
2023/10/14 06:53:07;;;;;;;11.52;1.67;;;;;;;;;;5019233;28;20433;-60
2023/10/14 06:55:40;;;;;;;13.35;1.90;;;;;;;;;;5018642;28;20399;-60
2023/10/14 06:58:06;;;;;;;10.77;2.13;;;;;;;;;;5020534;28;20414;-59
2023/10/14 07:00:31;;;;;;;14.05;2.10;;;;;;;;;;5019683;28;20433;-60
2023/10/14 07:02:57;;;;;;;9.60;1.70;;;;;;;;;;5016649;28;20404;-59
2023/10/14 07:05:23;;;;;;;9.60;2.00;;;;;;;;;;5018160;28;20921;-59
2023/10/14 07:07:48;;;;;;;12.02;1.85;;;;;;;;;;5019598;28;20410;-59
2023/10/14 07:10:14;;;;;;;10.67;2.00;;;;;;;;;;5019792;28;20408;-59
2023/10/14 07:12:39;;;;;;;12.23;2.00;;;;;;;;;;5019045;28;20439;-59
2023/10/14 07:15:05;;;;;;;11.50;1.80;;;;;;;;;;5019758;28;20408;-59
2023/10/14 07:17:31;;;;;;;7.93;1.70;;;;;;;;;;5017346;28;20504;-60
2023/10/14 07:19:56;;;;;;;8.32;1.83;;;;;;;;;;5015904;28;20980;-60
2023/10/14 07:22:21;;;;;;;13.67;2.17;;;;;;;;;;5018730;28;20397;-60
2023/10/14 07:24:47;;;;;;;11.23;1.90;;;;;;;;;;5014928;28;20389;-60
2023/10/14 07:27:13;;;;;;;11.00;2.17;;;;;;;;;;5015667;28;20417;-60
2023/10/14 07:29:39;;;;;;;13.07;2.40;;;;;;;;;;5014709;28;20814;-60
2023/10/14 07:32:05;;;;;;;9.30;2.13;;;;;;;;;;5021148;28;20411;-60
2023/10/14 07:34:30;;;;;;;11.57;2.38;;;;;;;;;;5015087;28;20397;-60
2023/10/14 07:36:55;;;;;;;12.17;2.43;;;;;;;;;;5015036;28;20465;-59
2023/10/14 07:39:27;;;;;;;11.73;2.40;;;;;;;;;;5022086;28;20431;-59
2023/10/14 07:41:52;;;;;;;11.00;2.10;;;;;;;;;;5013386;28;20404;-59
2023/10/14 07:44:19;;;;;;;10.57;1.95;;;;;;;;;;5015236;28;20451;-59
2023/10/14 07:46:44;;;;;;;13.33;2.30;;;;;;;;;;5019318;28;20409;-59
2023/10/14 07:49:09;;;;;;;11.20;1.90;;;;;;;;;;5021537;28;20481;-60
2023/10/14 07:51:34;;;;;;;13.43;2.77;;;;;;;;;;5015085;28;20404;-59
2023/10/14 07:54:00;;;;;;;10.90;2.40;;;;;;;;;;5014928;28;20549;-59
2023/10/14 07:56:25;;;;;;;10.90;2.00;;;;;;;;;;5021428;28;20479;-59
2023/10/14 07:58:53;;;;;;;11.23;2.13;;;;;;;;;;5014864;28;20401;-59
2023/10/14 08:01:19;;;;;;;10.90;1.90;;;;;;;;;;5014640;28;20741;-59
2023/10/14 08:03:44;;;;;;;11.45;2.20;;;;;;;;;;5018224;28;20477;-60
2023/10/14 08:06:10;;;;;;;12.20;2.37;;;;;;;;;;5013023;28;20428;-59
2023/10/14 08:08:42;;;;;;;11.25;2.10;;;;;;;;;;5011123;28;20459;-59
2023/10/14 08:11:07;;;;;;;10.13;2.20;;;;;;;;;;5018859;28;20395;-59
2023/10/14 08:13:33;;;;;;;10.50;2.30;;;;;;;;;;5013806;28;20946;-59
2023/10/14 08:15:59;;;;;;;8.35;2.00;;;;;;;;;;5014150;28;20480;-59
2023/10/14 08:18:25;;;;;;;9.37;2.20;;;;;;;;;;5013750;28;20835;-60
2023/10/14 08:20:53;;;;;;;13.15;2.10;;;;;;;;;;5014040;28;20411;-59
2023/10/14 08:23:20;;;;;;;10.90;2.22;;;;;;;;;;5011922;28;20397;-59
2023/10/14 08:25:46;;;;;;;8.68;1.95;;;;;;;;;;5015802;28;20466;-59
2023/10/14 08:28:12;;;;;;;8.85;1.70;;;;;;;;;;5020048;28;20417;-60
2023/10/14 08:30:52;;;;;;;10.07;1.90;;;;;;;;;;5009961;28;20400;-60
2023/10/14 08:33:21;;;;;;;12.70;2.67;;;;;;;;;;5018920;28;20415;-60
2023/10/14 08:35:48;;;;;;;9.30;2.00;;;;;;;;;;5016581;28;20428;-59
2023/10/14 08:38:14;;;;;;;8.90;1.90;;;;;;;;;;5012649;28;20419;-60
2023/10/14 08:40:39;;;;;;;9.93;2.08;;;;;;;;;;5020985;28;20399;-59
2023/10/14 08:43:05;;;;;;;11.13;2.23;;;;;;;;;;5015244;28;20479;-60
2023/10/14 08:45:36;;;;;;;9.75;1.90;;;;;;;;;;5018031;28;20538;-60
2023/10/14 08:48:02;;;;;;;8.73;2.00;;;;;;;;;;5012845;28;20413;-60
2023/10/14 08:50:29;;;;;;;10.10;2.53;;;;;;;;;;5019477;28;20489;-60
2023/10/14 08:52:56;;;;;;;10.95;2.45;;;;;;;;;;5015111;28;20411;-60
2023/10/14 08:55:21;;;;;;;10.15;2.50;;;;;;;;;;5019528;28;20411;-60
2023/10/14 08:57:47;;;;;;;9.10;1.97;;;;;;;;;;5012971;28;20887;-60
2023/10/14 09:00:18;;;;;;;8.90;2.07;;;;;;;;;;5014633;28;20454;-60
2023/10/14 09:02:44;;;;;;;10.60;2.30;;;;;;;;;;5017359;28;20391;-60
2023/10/14 09:05:11;;;;;;;9.87;2.03;;;;;;;;;;5020671;28;20423;-60
2023/10/14 09:07:38;;;;;;;10.80;2.30;;;;;;;;;;5013663;28;20489;-60
2023/10/14 09:10:04;;;;;;;12.73;2.60;;;;;;;;;;5013938;28;20492;-60
2023/10/14 09:12:29;;;;;;;10.57;2.40;;;;;;;;;;5017863;28;20470;-60
2023/10/14 09:14:54;;;;;;;12.27;2.37;;;;;;;;;;5012676;28;20950;-59
2023/10/14 09:17:20;;;;;;;11.10;2.13;;;;;;;;;;5014473;28;20743;-60
2023/10/14 09:19:46;;;;;;;8.57;2.23;;;;;;;;;;5012709;28;20403;-60
2023/10/14 09:22:22;;;;;;;7.78;1.83;;;;;;;;;;5019971;28;20464;-60
2023/10/14 09:24:54;;;;;;;9.65;2.03;;;;;;;;;;5017951;28;20845;-59
2023/10/14 09:27:19;;;;;;;9.97;2.10;;;;;;;;;;5016138;28;20416;-60
2023/10/14 09:29:45;;;;;;;9.00;2.03;;;;;;;;;;5020756;28;20487;-59
2023/10/14 09:32:10;;;;;;;9.27;2.03;;;;;;;;;;5012437;28;20404;-60
2023/10/14 09:34:36;;;;;;;8.57;2.00;;;;;;;;;;5010664;28;20899;-59
2023/10/14 09:37:10;;;;;;;9.63;2.07;;;;;;;;;;5016466;28;20890;-60
2023/10/14 09:39:38;;;;;;;12.67;2.40;;;;;;;;;;5026089;28;20480;-59
2023/10/14 09:42:04;;;;;;;9.18;2.20;;;;;;;;;;5023278;28;20765;-60
2023/10/14 09:44:31;;;;;;;8.82;2.20;;;;;;;;;;5018943;28;21026;-59
2023/10/14 09:46:57;;;;;;;7.68;1.75;;;;;;;;;;5016068;28;20468;-59
2023/10/14 09:49:22;;;;;;;7.57;1.80;;;;;;;;;;5014068;28;20416;-59
2023/10/14 09:51:48;;;;;;;10.53;2.33;;;;;;;;;;5018646;28;20441;-59
2023/10/14 09:54:14;;;;;;;11.20;2.33;;;;;;;;;;5020549;28;20410;-59
2023/10/14 09:56:40;;;;;;;11.07;2.00;;;;;;;;;;5014443;28;20618;-59
2023/10/14 09:59:05;;;;;;;10.82;2.08;;;;;;;;;;5022228;28;20469;-59
2023/10/14 10:01:31;;;;;;;9.00;2.17;;;;;;;;;;5018519;28;20422;-59
2023/10/14 10:04:00;;;;;;;11.77;2.53;;;;;;;;;;5023102;28;20456;-59
2023/10/14 10:06:33;;;;;;;12.63;2.50;;;;;;;;;;5015464;28;20404;-59
2023/10/14 10:09:03;;;;;;;11.10;2.08;;;;;;;;;;5015461;28;20442;-59
2023/10/14 10:11:29;;;;;;;9.57;2.17;;;;;;;;;;5014361;28;20396;-59
2023/10/14 10:13:58;;;;;;;11.17;2.20;;;;;;;;;;5023024;28;21090;-59
2023/10/14 10:16:23;;;;;;;10.40;2.10;;;;;;;;;;5020712;28;20395;-59
2023/10/14 10:18:56;;;;;;;10.67;2.30;;;;;;;;;;5016965;28;20737;-59
2023/10/14 10:21:24;;;;;;;12.15;2.42;;;;;;;;;;5014197;28;20389;-59
2023/10/14 10:23:50;;;;;;;9.63;2.10;;;;;;;;;;5023730;28;20464;-59
2023/10/14 10:26:17;;;;;;;10.05;2.10;;;;;;;;;;5014683;28;20431;-59
2023/10/14 10:28:44;;;;;;;8.03;1.70;;;;;;;;;;5015795;28;20417;-59
2023/10/14 10:31:10;;;;;;;10.17;2.20;;;;;;;;;;5014399;28;20411;-59
2023/10/14 10:33:55;;;;;;;10.48;1.98;;;;;;;;;;5020541;28;20411;-58
2023/10/14 10:36:26;;;;;;;9.10;1.70;;;;;;;;;;5015830;28;20399;-58
2023/10/14 10:38:53;;;;;;;9.93;2.10;;;;;;;;;;5015116;28;20416;-58
2023/10/14 10:41:19;;;;;;;7.70;1.52;;;;;;;;;;5022506;28;20417;-59
2023/10/14 10:43:46;;;;;;;5.50;1.17;;;;;;;;;;5020334;28;20485;-58
2023/10/14 10:46:37;;;;;;;6.72;1.50;;;;;;;;;;5018052;28;20431;-58
2023/10/14 10:49:06;;;;;;;7.30;1.45;;;;;;;;;;5014634;28;20413;-58
2023/10/14 10:51:31;;;;;;;5.35;1.23;;;;;;;;;;5022834;28;20517;-59
2023/10/14 10:53:59;;;;;;;6.20;1.20;;;;;;;;;;5014435;28;20519;-58
2023/10/14 10:56:26;;;;;;;7.13;1.60;;;;;;;;;;5014060;28;20526;-58
2023/10/14 10:58:51;;;;;;;6.77;1.50;;;;;;;;;;5022842;28;20484;-58
2023/10/14 11:01:17;;;;;;;6.20;1.50;;;;;;;;;;5014500;28;20900;-58
2023/10/14 11:03:42;;;;;;;5.87;1.33;;;;;;;;;;5016527;28;20427;-58
2023/10/14 11:06:13;;;;;;;7.30;1.60;;;;;;;;;;5021711;28;20869;-59
2023/10/14 11:08:38;;;;;;;7.85;1.50;;;;;;;;;;5023352;28;20482;-58
2023/10/14 11:11:04;;;;;;;7.90;1.70;;;;;;;;;;5015434;28;20490;-59
2023/10/14 11:13:29;;;;;;;7.68;1.70;;;;;;;;;;5014496;28;20405;-58
2023/10/14 11:15:55;;;;;;;9.40;1.60;;;;;;;;;;5022788;28;20472;-58
2023/10/14 11:18:20;;;;;;;8.77;1.50;;;;;;;;;;5020019;28;20395;-58
2023/10/14 11:20:45;;;;;;;8.83;1.57;;;;;;;;;;5017920;28;20403;-59
2023/10/14 11:23:11;;;;;;;7.93;1.87;;;;;;;;;;5020167;28;20448;-59
2023/10/14 11:25:44;;;;;;;9.63;1.63;;;;;;;;;;5022520;28;20470;-58
2023/10/14 11:28:11;;;;;;;8.88;1.75;;;;;;;;;;5015354;28;20499;-58
2023/10/14 11:30:41;;;;;;;10.05;2.10;;;;;;;;;;5020516;28;20782;-58
2023/10/14 11:33:08;;;;;;;8.57;1.80;;;;;;;;;;5013013;28;20403;-58
2023/10/14 11:35:33;;;;;;;8.20;1.77;;;;;;;;;;5018958;28;20471;-58
2023/10/14 11:38:00;;;;;;;7.90;1.70;;;;;;;;;;5018120;28;20399;-58
2023/10/14 11:40:33;;;;;;;7.32;1.52;;;;;;;;;;5013829;28;20742;-58
2023/10/14 11:42:58;;;;;;;6.60;1.55;;;;;;;;;;5022482;28;20399;-58
2023/10/14 11:45:24;;;;;;;8.67;1.63;;;;;;;;;;5015389;28;20403;-59
2023/10/14 11:47:49;;;;;;;7.80;1.80;;;;;;;;;;5014159;28;20765;-58
2023/10/14 11:50:14;;;;;;;8.80;1.70;;;;;;;;;;5021518;28;20828;-58
2023/10/14 11:52:42;;;;;;;6.73;1.43;;;;;;;;;;5013675;28;20412;-58
2023/10/14 11:55:11;;;;;;;5.85;1.25;;;;;;;;;;5014371;28;20472;-59
2023/10/14 11:57:37;;;;;;;6.30;1.38;;;;;;;;;;5021184;28;20927;-58
2023/10/14 12:00:02;;;;;;;4.80;1.23;;;;;;;;;;5012350;28;20528;-59
2023/10/14 12:02:29;;;;;;;6.07;1.30;;;;;;;;;;5015780;28;20434;-58
2023/10/14 12:04:54;;;;;;;6.95;1.20;;;;;;;;;;5021876;28;20929;-58
2023/10/14 12:07:21;;;;;;;7.00;1.13;;;;;;;;;;5013169;28;20401;-58
2023/10/14 12:09:47;;;;;;;5.77;1.33;;;;;;;;;;5016936;28;20407;-58
2023/10/14 12:12:12;;;;;;;7.15;1.40;;;;;;;;;;5019102;28;20406;-58
2023/10/14 12:14:37;;;;;;;5.77;1.40;;;;;;;;;;5020384;28;20403;-58
2023/10/14 12:17:04;;;;;;;6.83;1.50;;;;;;;;;;5013859;28;20409;-58
2023/10/14 12:19:30;;;;;;;7.70;2.00;;;;;;;;;;5017697;28;20525;-58
2023/10/14 12:21:55;;;;;;;7.10;1.20;;;;;;;;;;5013446;28;20492;-58
2023/10/14 12:24:20;;;;;;;8.90;1.50;;;;;;;;;;5012602;28;20399;-58
2023/10/14 12:26:46;;;;;;;7.45;2.00;;;;;;;;;;5015761;28;20904;-58
2023/10/14 12:29:11;;;;;;;9.18;1.70;;;;;;;;;;5020840;28;20407;-58
2023/10/14 12:31:44;;;;;;;9.55;1.50;;;;;;;;;;5020500;28;20417;-58
2023/10/14 12:34:11;;;;;;;7.28;1.60;;;;;;;;;;5018421;28;20897;-58
2023/10/14 12:36:40;;;;;;;6.70;1.30;;;;;;;;;;5017699;28;20423;-58
2023/10/14 12:39:09;;;;;;;7.32;1.55;;;;;;;;;;5011784;28;20411;-58
2023/10/14 12:41:39;;;;;;;5.93;1.60;;;;;;;;;;5021780;28;20399;-58
2023/10/14 12:44:08;;;;;;;6.93;1.30;;;;;;;;;;5015426;28;20413;-58
2023/10/14 12:46:40;;;;;;;6.03;1.40;;;;;;;;;;5018460;28;20899;-59
2023/10/14 12:49:10;;;;;;;6.28;1.30;;;;;;;;;;5020659;28;20925;-58
2023/10/14 12:51:37;;;;;;;5.07;1.20;;;;;;;;;;5019234;28;20406;-58
2023/10/14 12:54:08;;;;;;;6.32;1.30;;;;;;;;;;5015933;28;20526;-59
2023/10/14 12:56:38;;;;;;;5.75;1.30;;;;;;;;;;5021221;28;20408;-58
2023/10/14 12:59:12;;;;;;;6.80;1.30;;;;;;;;;;5012584;28;20400;-58
2023/10/14 13:01:37;;;;;;;6.10;1.13;;;;;;;;;;5014783;28;20405;-58
2023/10/14 13:04:04;;;;;;;5.10;1.20;;;;;;;;;;5016021;28;20459;-58
2023/10/14 13:06:30;;;;;;;6.03;1.30;;;;;;;;;;5012282;28;20904;-58
2023/10/14 13:08:59;;;;;;;7.77;1.60;;;;;;;;;;5018416;28;20434;-58
2023/10/14 13:11:24;;;;;;;5.75;1.40;;;;;;;;;;5019062;28;20426;-58
2023/10/14 13:13:51;;;;;;;5.73;1.30;;;;;;;;;;5016430;28;20927;-58
2023/10/14 13:16:18;;;;;;;6.78;1.48;;;;;;;;;;5024471;28;20429;-58
2023/10/14 13:18:45;;;;;;;6.13;1.45;;;;;;;;;;5018277;28;20959;-58
2023/10/14 13:21:14;;;;;;;7.10;1.50;;;;;;;;;;5015965;28;20406;-59
2023/10/14 13:23:40;;;;;;;6.05;1.20;;;;;;;;;;5025377;28;20913;-59
2023/10/14 13:26:07;;;;;;;7.25;1.45;;;;;;;;;;5022872;28;20421;-59
2023/10/14 13:28:35;;;;;;;6.45;1.38;;;;;;;;;;5019852;28;20407;-58
2023/10/14 13:31:00;;;;;;;5.30;1.30;;;;;;;;;;5023318;28;20964;-59
2023/10/14 13:33:25;;;;;;;7.57;1.40;;;;;;;;;;5014927;28;20391;-59
2023/10/14 13:35:55;;;;;;;5.85;1.27;;;;;;;;;;5009595;28;20494;-59
2023/10/14 13:38:21;;;;;;;6.82;1.25;;;;;;;;;;5012704;28;21279;-59
2023/10/14 13:40:46;;;;;;;6.32;1.23;;;;;;;;;;5018671;28;20399;-59
2023/10/14 13:43:17;;;;;;;5.73;1.20;;;;;;;;;;5018818;28;20441;-58
2023/10/14 13:45:43;;;;;;;7.63;1.40;;;;;;;;;;5018130;28;20482;-58
2023/10/14 13:48:08;;;;;;;7.60;1.40;;;;;;;;;;5020226;28;20421;-59
2023/10/14 13:50:40;;;;;;;8.53;1.50;;;;;;;;;;5012145;28;20422;-58
2023/10/14 13:53:09;;;;;;;7.90;1.55;;;;;;;;;;5016826;28;20403;-58
2023/10/14 13:55:34;;;;;;;4.68;1.23;;;;;;;;;;5017471;28;20410;-58
2023/10/14 13:58:00;;;;;;;7.43;1.50;;;;;;;;;;5013517;28;20397;-58
2023/10/14 14:00:37;;;;;;;6.67;1.30;;;;;;;;;;5010782;28;20383;-58
2023/10/14 14:03:04;;;;;;;6.47;1.30;;;;;;;;;;5013683;28;20435;-58
2023/10/14 14:05:30;;;;;;;6.05;1.30;;;;;;;;;;5020944;28;20437;-58
2023/10/14 14:07:55;;;;;;;6.10;1.30;;;;;;;;;;5020247;28;20868;-58
2023/10/14 14:10:21;;;;;;;6.73;1.73;;;;;;;;;;5016155;28;20403;-58
2023/10/14 14:12:46;;;;;;;8.67;1.37;;;;;;;;;;5020949;28;20494;-58
2023/10/14 14:15:14;;;;;;;7.00;1.30;;;;;;;;;;5019694;28;20805;-58
2023/10/14 14:17:40;;;;;;;8.32;1.70;;;;;;;;;;5015785;28;20455;-58
2023/10/14 14:20:05;;;;;;;7.40;1.33;;;;;;;;;;5011810;28;20406;-59
2023/10/14 14:22:32;;;;;;;6.90;1.50;;;;;;;;;;5013389;28;20457;-58
2023/10/14 14:24:58;;;;;;;7.77;1.40;;;;;;;;;;5012636;28;20404;-58
2023/10/14 14:27:24;;;;;;;8.05;1.40;;;;;;;;;;5017585;28;20410;-58
2023/10/14 14:29:51;;;;;;;6.97;1.20;;;;;;;;;;5021294;28;20401;-58
2023/10/14 14:32:18;;;;;;;5.20;1.30;;;;;;;;;;5019963;28;20421;-58
2023/10/14 14:34:43;;;;;;;5.47;1.10;;;;;;;;;;5016178;28;20447;-58
2023/10/14 14:37:09;;;;;;;7.73;1.40;;;;;;;;;;5020012;28;20431;-58
2023/10/14 14:39:36;;;;;;;6.37;1.37;;;;;;;;;;5020228;28;20410;-58
2023/10/14 14:42:01;;;;;;;5.65;1.30;;;;;;;;;;5009898;28;20581;-58
2023/10/14 14:44:26;;;;;;;5.97;1.70;;;;;;;;;;5010903;28;20951;-58
2023/10/14 14:46:52;;;;;;;7.57;1.47;;;;;;;;;;5013705;28;20413;-58
2023/10/14 14:49:17;;;;;;;7.53;1.40;;;;;;;;;;5016241;28;20411;-58
2023/10/14 14:51:42;;;;;;;7.13;1.50;;;;;;;;;;5017039;28;20411;-57
2023/10/14 14:54:08;;;;;;;7.00;1.30;;;;;;;;;;5019552;28;20415;-58
2023/10/14 14:56:34;;;;;;;9.37;2.00;;;;;;;;;;5019730;28;20484;-58
2023/10/14 14:59:00;;;;;;;6.27;1.37;;;;;;;;;;5015275;28;20978;-58